Princeton, Oregon
Current Conditions -  °F | °C
As of 3:53 AM on Monday 22 Dec 2014 (Local Time) from KBNO Reporting Station
Overcast Overcast  
Wind Chill: 35°   Ceiling: 4900
Heat Index: 39°   Visibility: 10mi
Dew Point: 37°   Wind: 6mph
Humidity: 93%   Direction: 240°WSW
Pressure: 30.12"   Gusts: NA
Location:  43.25°N, 118.58°W
Report Text: KBNO 221153Z AUTO 24005KT 10SM OVC049 04/03 A3012 RMK AO2 SLP204 60000 T00390028 10044 20028 53007
Loading
Personal Weather Stations






























Interactive Weather Map New forecast layout! Learn more

10-Day Weather Forecast

Advertisements
Track Severe Weather on mobile